sensor_id;sensor_type;location;lat;lon;timestamp;temperature;humidity
72440;DHT22;60446;50.752;4.352;2023-04-24T00:00:04;8.50;79.40
72440;DHT22;60446;50.752;4.352;2023-04-24T00:02:41;8.40;79.50
72440;DHT22;60446;50.752;4.352;2023-04-24T00:05:15;8.50;79.10
72440;DHT22;60446;50.752;4.352;2023-04-24T00:07:43;8.50;79.20
72440;DHT22;60446;50.752;4.352;2023-04-24T00:10:12;8.40;78.40
72440;DHT22;60446;50.752;4.352;2023-04-24T00:12:39;8.40;79.60
72440;DHT22;60446;50.752;4.352;2023-04-24T00:15:07;8.30;79.80
72440;DHT22;60446;50.752;4.352;2023-04-24T00:17:35;8.40;79.30
72440;DHT22;60446;50.752;4.352;2023-04-24T00:20:04;8.50;79.10
72440;DHT22;60446;50.752;4.352;2023-04-24T00:22:33;8.50;79.40
72440;DHT22;60446;50.752;4.352;2023-04-24T00:25:00;8.40;79.80
72440;DHT22;60446;50.752;4.352;2023-04-24T00:27:28;8.40;78.90
72440;DHT22;60446;50.752;4.352;2023-04-24T00:29:55;8.40;78.80
72440;DHT22;60446;50.752;4.352;2023-04-24T00:32:22;8.40;79.40
72440;DHT22;60446;50.752;4.352;2023-04-24T00:34:49;8.30;79.50
72440;DHT22;60446;50.752;4.352;2023-04-24T00:37:17;8.30;79.20
72440;DHT22;60446;50.752;4.352;2023-04-24T00:39:44;8.30;79.70
72440;DHT22;60446;50.752;4.352;2023-04-24T00:42:12;8.30;79.70
72440;DHT22;60446;50.752;4.352;2023-04-24T00:44:39;8.30;79.50
72440;DHT22;60446;50.752;4.352;2023-04-24T00:47:07;8.30;79.60
72440;DHT22;60446;50.752;4.352;2023-04-24T00:49:34;8.30;79.40
72440;DHT22;60446;50.752;4.352;2023-04-24T00:52:02;8.30;79.60
72440;DHT22;60446;50.752;4.352;2023-04-24T00:54:35;8.30;79.60
72440;DHT22;60446;50.752;4.352;2023-04-24T00:57:03;8.30;80.20
72440;DHT22;60446;50.752;4.352;2023-04-24T00:59:31;8.20;81.20
72440;DHT22;60446;50.752;4.352;2023-04-24T01:01:58;8.10;81.70
72440;DHT22;60446;50.752;4.352;2023-04-24T01:04:26;8.00;82.80
72440;DHT22;60446;50.752;4.352;2023-04-24T01:06:54;8.00;83.00
72440;DHT22;60446;50.752;4.352;2023-04-24T01:09:26;7.90;82.50
72440;DHT22;60446;50.752;4.352;2023-04-24T01:11:53;7.90;83.20
72440;DHT22;60446;50.752;4.352;2023-04-24T01:14:21;7.80;83.50
72440;DHT22;60446;50.752;4.352;2023-04-24T01:16:49;7.80;83.30
72440;DHT22;60446;50.752;4.352;2023-04-24T01:19:16;7.80;83.60
72440;DHT22;60446;50.752;4.352;2023-04-24T01:21:47;7.90;83.30
72440;DHT22;60446;50.752;4.352;2023-04-24T01:24:18;7.80;83.10
72440;DHT22;60446;50.752;4.352;2023-04-24T01:26:47;7.80;83.70
72440;DHT22;60446;50.752;4.352;2023-04-24T01:29:14;7.80;83.40
72440;DHT22;60446;50.752;4.352;2023-04-24T01:31:42;7.70;83.40
72440;DHT22;60446;50.752;4.352;2023-04-24T01:34:10;7.70;84.00
72440;DHT22;60446;50.752;4.352;2023-04-24T01:36:37;7.70;83.60
72440;DHT22;60446;50.752;4.352;2023-04-24T01:39:05;7.70;83.80
72440;DHT22;60446;50.752;4.352;2023-04-24T01:41:33;7.70;83.90
72440;DHT22;60446;50.752;4.352;2023-04-24T01:44:01;7.70;84.20
72440;DHT22;60446;50.752;4.352;2023-04-24T01:46:29;7.80;84.10
72440;DHT22;60446;50.752;4.352;2023-04-24T01:49:00;7.70;83.80
72440;DHT22;60446;50.752;4.352;2023-04-24T01:51:28;7.70;83.90
72440;DHT22;60446;50.752;4.352;2023-04-24T01:53:56;7.70;84.10
72440;DHT22;60446;50.752;4.352;2023-04-24T01:56:23;7.60;83.90
72440;DHT22;60446;50.752;4.352;2023-04-24T01:58:52;7.70;84.10
72440;DHT22;60446;50.752;4.352;2023-04-24T02:01:20;7.70;84.20
72440;DHT22;60446;50.752;4.352;2023-04-24T02:03:48;7.70;84.50
72440;DHT22;60446;50.752;4.352;2023-04-24T02:06:15;7.70;84.20
72440;DHT22;60446;50.752;4.352;2023-04-24T02:08:42;7.60;84.20
72440;DHT22;60446;50.752;4.352;2023-04-24T02:11:10;7.70;84.40
72440;DHT22;60446;50.752;4.352;2023-04-24T02:13:37;7.70;84.40
72440;DHT22;60446;50.752;4.352;2023-04-24T02:16:04;7.70;84.20
72440;DHT22;60446;50.752;4.352;2023-04-24T02:18:31;7.70;84.30
72440;DHT22;60446;50.752;4.352;2023-04-24T02:20:59;7.60;84.60
72440;DHT22;60446;50.752;4.352;2023-04-24T02:23:26;7.60;84.90
72440;DHT22;60446;50.752;4.352;2023-04-24T02:25:53;7.60;85.00
72440;DHT22;60446;50.752;4.352;2023-04-24T02:28:21;7.60;84.90
72440;DHT22;60446;50.752;4.352;2023-04-24T02:30:50;7.60;84.50
72440;DHT22;60446;50.752;4.352;2023-04-24T02:33:20;7.70;84.90
72440;DHT22;60446;50.752;4.352;2023-04-24T02:35:47;7.70;84.60
72440;DHT22;60446;50.752;4.352;2023-04-24T02:38:14;7.70;84.60
72440;DHT22;60446;50.752;4.352;2023-04-24T02:40:43;7.70;84.50
72440;DHT22;60446;50.752;4.352;2023-04-24T02:43:10;7.70;84.50
72440;DHT22;60446;50.752;4.352;2023-04-24T02:45:37;7.70;84.50
72440;DHT22;60446;50.752;4.352;2023-04-24T02:48:05;7.60;84.60
72440;DHT22;60446;50.752;4.352;2023-04-24T02:50:32;7.70;84.70
72440;DHT22;60446;50.752;4.352;2023-04-24T02:53:00;7.70;85.00
72440;DHT22;60446;50.752;4.352;2023-04-24T02:55:27;7.70;84.60
72440;DHT22;60446;50.752;4.352;2023-04-24T02:57:54;7.70;84.80
72440;DHT22;60446;50.752;4.352;2023-04-24T03:00:21;7.60;85.10
72440;DHT22;60446;50.752;4.352;2023-04-24T03:02:49;7.60;85.20
72440;DHT22;60446;50.752;4.352;2023-04-24T03:05:16;7.60;85.20
72440;DHT22;60446;50.752;4.352;2023-04-24T03:07:43;7.50;85.60
72440;DHT22;60446;50.752;4.352;2023-04-24T03:10:12;7.60;85.30
72440;DHT22;60446;50.752;4.352;2023-04-24T03:12:39;7.70;84.80
72440;DHT22;60446;50.752;4.352;2023-04-24T03:15:07;7.70;84.90
72440;DHT22;60446;50.752;4.352;2023-04-24T03:17:36;7.70;85.20
72440;DHT22;60446;50.752;4.352;2023-04-24T03:20:04;7.70;84.30
72440;DHT22;60446;50.752;4.352;2023-04-24T03:22:35;7.70;84.60
72440;DHT22;60446;50.752;4.352;2023-04-24T03:25:06;7.60;84.40
72440;DHT22;60446;50.752;4.352;2023-04-24T03:27:36;7.60;84.40
72440;DHT22;60446;50.752;4.352;2023-04-24T03:30:16;7.50;84.50
72440;DHT22;60446;50.752;4.352;2023-04-24T03:32:48;7.40;84.70
72440;DHT22;60446;50.752;4.352;2023-04-24T03:35:20;7.40;85.10
72440;DHT22;60446;50.752;4.352;2023-04-24T03:37:49;7.40;84.80
72440;DHT22;60446;50.752;4.352;2023-04-24T03:40:35;7.40;84.90
72440;DHT22;60446;50.752;4.352;2023-04-24T03:43:07;7.40;84.80
72440;DHT22;60446;50.752;4.352;2023-04-24T03:45:36;7.40;84.70
72440;DHT22;60446;50.752;4.352;2023-04-24T03:48:03;7.50;84.30
72440;DHT22;60446;50.752;4.352;2023-04-24T03:50:31;7.50;84.60
72440;DHT22;60446;50.752;4.352;2023-04-24T03:52:59;7.50;84.70
72440;DHT22;60446;50.752;4.352;2023-04-24T03:55:35;7.50;84.60
72440;DHT22;60446;50.752;4.352;2023-04-24T03:58:03;7.50;84.80
72440;DHT22;60446;50.752;4.352;2023-04-24T04:00:30;7.50;85.20
72440;DHT22;60446;50.752;4.352;2023-04-24T04:03:18;7.50;85.30
72440;DHT22;60446;50.752;4.352;2023-04-24T04:05:46;7.50;85.30
72440;DHT22;60446;50.752;4.352;2023-04-24T04:08:13;7.50;85.50
72440;DHT22;60446;50.752;4.352;2023-04-24T04:10:41;7.60;85.30
72440;DHT22;60446;50.752;4.352;2023-04-24T04:13:08;7.60;85.40
72440;DHT22;60446;50.752;4.352;2023-04-24T04:15:36;7.70;85.30
72440;DHT22;60446;50.752;4.352;2023-04-24T04:18:03;7.70;85.30
72440;DHT22;60446;50.752;4.352;2023-04-24T04:20:30;7.70;85.10
72440;DHT22;60446;50.752;4.352;2023-04-24T04:22:57;7.80;85.00
72440;DHT22;60446;50.752;4.352;2023-04-24T04:25:36;7.80;85.20
72440;DHT22;60446;50.752;4.352;2023-04-24T04:28:04;7.90;85.20
72440;DHT22;60446;50.752;4.352;2023-04-24T04:30:31;7.80;85.10
72440;DHT22;60446;50.752;4.352;2023-04-24T04:33:02;7.90;85.20
72440;DHT22;60446;50.752;4.352;2023-04-24T04:35:30;7.90;85.20
72440;DHT22;60446;50.752;4.352;2023-04-24T04:37:58;7.90;85.10
72440;DHT22;60446;50.752;4.352;2023-04-24T04:40:38;7.90;85.50
72440;DHT22;60446;50.752;4.352;2023-04-24T04:43:06;7.90;85.10
72440;DHT22;60446;50.752;4.352;2023-04-24T04:45:42;7.90;85.10
72440;DHT22;60446;50.752;4.352;2023-04-24T04:48:32;7.90;84.60
72440;DHT22;60446;50.752;4.352;2023-04-24T04:51:01;7.80;84.40
72440;DHT22;60446;50.752;4.352;2023-04-24T04:53:28;7.80;84.70
72440;DHT22;60446;50.752;4.352;2023-04-24T04:55:56;7.70;84.00
72440;DHT22;60446;50.752;4.352;2023-04-24T04:58:29;7.80;83.80
72440;DHT22;60446;50.752;4.352;2023-04-24T05:00:59;7.80;83.50
72440;DHT22;60446;50.752;4.352;2023-04-24T05:03:34;7.70;83.80
72440;DHT22;60446;50.752;4.352;2023-04-24T05:06:06;7.80;83.90
72440;DHT22;60446;50.752;4.352;2023-04-24T05:08:36;7.70;83.80
72440;DHT22;60446;50.752;4.352;2023-04-24T05:11:07;7.70;84.00
72440;DHT22;60446;50.752;4.352;2023-04-24T05:13:36;7.70;84.10
72440;DHT22;60446;50.752;4.352;2023-04-24T05:16:17;7.70;83.80
72440;DHT22;60446;50.752;4.352;2023-04-24T05:18:45;7.70;83.60
72440;DHT22;60446;50.752;4.352;2023-04-24T05:21:15;7.80;83.70
72440;DHT22;60446;50.752;4.352;2023-04-24T05:23:45;7.70;83.60
72440;DHT22;60446;50.752;4.352;2023-04-24T05:26:17;7.70;83.20
72440;DHT22;60446;50.752;4.352;2023-04-24T05:28:44;7.70;83.60
72440;DHT22;60446;50.752;4.352;2023-04-24T05:31:12;7.80;83.00
72440;DHT22;60446;50.752;4.352;2023-04-24T05:33:40;7.80;83.00
72440;DHT22;60446;50.752;4.352;2023-04-24T05:36:07;7.80;83.10
72440;DHT22;60446;50.752;4.352;2023-04-24T05:38:35;7.70;83.40
72440;DHT22;60446;50.752;4.352;2023-04-24T05:41:02;7.70;83.50
72440;DHT22;60446;50.752;4.352;2023-04-24T05:43:29;7.70;83.00
72440;DHT22;60446;50.752;4.352;2023-04-24T05:45:56;7.70;83.40
72440;DHT22;60446;50.752;4.352;2023-04-24T05:48:24;7.80;83.40
72440;DHT22;60446;50.752;4.352;2023-04-24T05:50:52;7.80;82.80
72440;DHT22;60446;50.752;4.352;2023-04-24T05:53:19;7.80;83.20
72440;DHT22;60446;50.752;4.352;2023-04-24T05:55:47;7.80;82.10
72440;DHT22;60446;50.752;4.352;2023-04-24T05:58:14;7.70;82.80
72440;DHT22;60446;50.752;4.352;2023-04-24T06:00:41;7.70;82.70
72440;DHT22;60446;50.752;4.352;2023-04-24T06:03:11;7.60;83.40
72440;DHT22;60446;50.752;4.352;2023-04-24T06:05:40;7.60;82.90
72440;DHT22;60446;50.752;4.352;2023-04-24T06:08:07;7.60;83.10
72440;DHT22;60446;50.752;4.352;2023-04-24T06:10:37;7.60;82.70
72440;DHT22;60446;50.752;4.352;2023-04-24T06:13:07;7.60;83.30
72440;DHT22;60446;50.752;4.352;2023-04-24T06:15:37;7.60;83.10
72440;DHT22;60446;50.752;4.352;2023-04-24T06:18:07;7.60;83.90
72440;DHT22;60446;50.752;4.352;2023-04-24T06:20:37;7.70;83.80
72440;DHT22;60446;50.752;4.352;2023-04-24T06:23:05;7.70;83.10
72440;DHT22;60446;50.752;4.352;2023-04-24T06:25:33;7.70;83.30
72440;DHT22;60446;50.752;4.352;2023-04-24T06:28:00;7.70;83.00
72440;DHT22;60446;50.752;4.352;2023-04-24T06:30:29;7.60;82.80
72440;DHT22;60446;50.752;4.352;2023-04-24T06:32:57;7.60;83.10
72440;DHT22;60446;50.752;4.352;2023-04-24T06:35:38;7.50;83.20
72440;DHT22;60446;50.752;4.352;2023-04-24T06:38:06;7.50;83.70
72440;DHT22;60446;50.752;4.352;2023-04-24T06:40:33;7.60;83.40
72440;DHT22;60446;50.752;4.352;2023-04-24T06:43:00;7.50;83.90
72440;DHT22;60446;50.752;4.352;2023-04-24T06:45:29;7.60;83.60
72440;DHT22;60446;50.752;4.352;2023-04-24T06:47:56;7.70;84.00
72440;DHT22;60446;50.752;4.352;2023-04-24T06:50:24;7.70;84.10
72440;DHT22;60446;50.752;4.352;2023-04-24T06:52:51;7.60;83.80
72440;DHT22;60446;50.752;4.352;2023-04-24T06:55:19;7.70;84.20
72440;DHT22;60446;50.752;4.352;2023-04-24T06:57:46;7.80;84.00
72440;DHT22;60446;50.752;4.352;2023-04-24T07:00:13;7.90;83.80
72440;DHT22;60446;50.752;4.352;2023-04-24T07:02:41;8.00;83.60
72440;DHT22;60446;50.752;4.352;2023-04-24T07:05:08;8.10;83.00
72440;DHT22;60446;50.752;4.352;2023-04-24T07:07:35;8.20;83.60
72440;DHT22;60446;50.752;4.352;2023-04-24T07:10:05;8.30;82.20
72440;DHT22;60446;50.752;4.352;2023-04-24T07:12:33;8.30;81.30
72440;DHT22;60446;50.752;4.352;2023-04-24T07:15:00;8.40;82.50
72440;DHT22;60446;50.752;4.352;2023-04-24T07:17:27;8.50;82.30
72440;DHT22;60446;50.752;4.352;2023-04-24T07:19:54;8.50;82.10
72440;DHT22;60446;50.752;4.352;2023-04-24T07:22:22;8.50;81.60
72440;DHT22;60446;50.752;4.352;2023-04-24T07:24:49;8.50;81.60
72440;DHT22;60446;50.752;4.352;2023-04-24T07:27:16;8.60;81.10
72440;DHT22;60446;50.752;4.352;2023-04-24T07:29:44;8.60;81.10
72440;DHT22;60446;50.752;4.352;2023-04-24T07:32:11;8.50;80.50
72440;DHT22;60446;50.752;4.352;2023-04-24T07:34:38;8.50;80.70
72440;DHT22;60446;50.752;4.352;2023-04-24T07:37:05;8.40;80.10
72440;DHT22;60446;50.752;4.352;2023-04-24T07:39:33;8.40;81.20
72440;DHT22;60446;50.752;4.352;2023-04-24T07:42:00;8.30;81.10
72440;DHT22;60446;50.752;4.352;2023-04-24T07:44:29;8.40;81.40
72440;DHT22;60446;50.752;4.352;2023-04-24T07:46:56;8.30;81.30
72440;DHT22;60446;50.752;4.352;2023-04-24T07:49:23;8.40;81.00
72440;DHT22;60446;50.752;4.352;2023-04-24T07:51:50;8.50;80.30
72440;DHT22;60446;50.752;4.352;2023-04-24T07:54:17;8.50;81.00
72440;DHT22;60446;50.752;4.352;2023-04-24T07:56:45;8.60;80.80
72440;DHT22;60446;50.752;4.352;2023-04-24T07:59:12;8.70;79.00
72440;DHT22;60446;50.752;4.352;2023-04-24T08:01:39;8.80;79.00
72440;DHT22;60446;50.752;4.352;2023-04-24T08:04:07;8.90;79.10
72440;DHT22;60446;50.752;4.352;2023-04-24T08:06:34;8.90;79.50
72440;DHT22;60446;50.752;4.352;2023-04-24T08:09:02;9.00;79.40
72440;DHT22;60446;50.752;4.352;2023-04-24T08:11:29;9.00;79.40
72440;DHT22;60446;50.752;4.352;2023-04-24T08:13:56;9.10;77.80
72440;DHT22;60446;50.752;4.352;2023-04-24T08:16:23;9.00;77.70
72440;DHT22;60446;50.752;4.352;2023-04-24T08:18:51;9.10;79.80
72440;DHT22;60446;50.752;4.352;2023-04-24T08:21:19;9.30;78.30
72440;DHT22;60446;50.752;4.352;2023-04-24T08:23:47;9.40;77.30
72440;DHT22;60446;50.752;4.352;2023-04-24T08:26:14;9.50;78.70
72440;DHT22;60446;50.752;4.352;2023-04-24T08:28:42;9.60;77.10
72440;DHT22;60446;50.752;4.352;2023-04-24T08:31:09;9.60;75.80
72440;DHT22;60446;50.752;4.352;2023-04-24T08:33:36;9.60;76.10
72440;DHT22;60446;50.752;4.352;2023-04-24T08:36:05;9.50;75.70
72440;DHT22;60446;50.752;4.352;2023-04-24T08:38:33;9.60;76.10
72440;DHT22;60446;50.752;4.352;2023-04-24T08:41:01;9.70;76.10
72440;DHT22;60446;50.752;4.352;2023-04-24T08:43:28;9.70;75.30
72440;DHT22;60446;50.752;4.352;2023-04-24T08:45:56;10.00;76.70
72440;DHT22;60446;50.752;4.352;2023-04-24T08:48:26;10.30;75.10
72440;DHT22;60446;50.752;4.352;2023-04-24T08:50:58;10.10;72.20
72440;DHT22;60446;50.752;4.352;2023-04-24T08:53:26;9.90;72.90
72440;DHT22;60446;50.752;4.352;2023-04-24T08:55:55;9.80;73.80
72440;DHT22;60446;50.752;4.352;2023-04-24T08:58:25;9.70;73.20
72440;DHT22;60446;50.752;4.352;2023-04-24T09:00:57;9.60;72.10
72440;DHT22;60446;50.752;4.352;2023-04-24T09:03:27;9.60;73.80
72440;DHT22;60446;50.752;4.352;2023-04-24T09:05:55;9.70;73.80
72440;DHT22;60446;50.752;4.352;2023-04-24T09:08:25;9.90;72.80
72440;DHT22;60446;50.752;4.352;2023-04-24T09:10:53;10.00;71.20
72440;DHT22;60446;50.752;4.352;2023-04-24T09:13:20;10.20;71.20
72440;DHT22;60446;50.752;4.352;2023-04-24T09:15:47;10.40;69.10
72440;DHT22;60446;50.752;4.352;2023-04-24T09:18:17;10.40;70.00
72440;DHT22;60446;50.752;4.352;2023-04-24T09:23:30;10.10;72.20
72440;DHT22;60446;50.752;4.352;2023-04-24T09:25:59;10.10;70.90
72440;DHT22;60446;50.752;4.352;2023-04-24T09:28:35;10.10;72.20
72440;DHT22;60446;50.752;4.352;2023-04-24T09:33:59;10.10;68.90
72440;DHT22;60446;50.752;4.352;2023-04-24T09:36:42;10.10;69.90
72440;DHT22;60446;50.752;4.352;2023-04-24T09:39:12;10.30;69.10
72440;DHT22;60446;50.752;4.352;2023-04-24T09:41:55;10.40;68.80
72440;DHT22;60446;50.752;4.352;2023-04-24T09:44:28;10.20;68.90
72440;DHT22;60446;50.752;4.352;2023-04-24T09:46:57;10.10;67.50
72440;DHT22;60446;50.752;4.352;2023-04-24T09:49:29;10.30;68.20
72440;DHT22;60446;50.752;4.352;2023-04-24T09:52:05;10.50;67.20
72440;DHT22;60446;50.752;4.352;2023-04-24T09:54:34;10.60;66.10
72440;DHT22;60446;50.752;4.352;2023-04-24T09:57:03;10.70;65.70
72440;DHT22;60446;50.752;4.352;2023-04-24T09:59:31;10.70;65.80
72440;DHT22;60446;50.752;4.352;2023-04-24T10:01:59;10.60;65.70
72440;DHT22;60446;50.752;4.352;2023-04-24T10:04:28;10.70;65.20
72440;DHT22;60446;50.752;4.352;2023-04-24T10:06:56;10.80;64.40
72440;DHT22;60446;50.752;4.352;2023-04-24T10:09:25;10.90;64.60
72440;DHT22;60446;50.752;4.352;2023-04-24T10:11:54;11.00;63.70
72440;DHT22;60446;50.752;4.352;2023-04-24T10:14:24;10.90;62.20
72440;DHT22;60446;50.752;4.352;2023-04-24T10:16:55;10.90;64.60
72440;DHT22;60446;50.752;4.352;2023-04-24T10:19:26;11.00;66.20
72440;DHT22;60446;50.752;4.352;2023-04-24T10:21:53;11.20;64.90
72440;DHT22;60446;50.752;4.352;2023-04-24T10:24:22;11.30;63.50
72440;DHT22;60446;50.752;4.352;2023-04-24T10:26:49;11.40;63.50
72440;DHT22;60446;50.752;4.352;2023-04-24T10:29:18;11.40;62.20
72440;DHT22;60446;50.752;4.352;2023-04-24T10:31:47;11.50;62.40
72440;DHT22;60446;50.752;4.352;2023-04-24T10:34:16;11.40;61.40
72440;DHT22;60446;50.752;4.352;2023-04-24T10:36:55;11.40;64.40
72440;DHT22;60446;50.752;4.352;2023-04-24T10:39:24;11.60;61.10
72440;DHT22;60446;50.752;4.352;2023-04-24T10:41:55;11.60;63.70
72440;DHT22;60446;50.752;4.352;2023-04-24T10:44:25;11.60;63.10
72440;DHT22;60446;50.752;4.352;2023-04-24T10:47:03;11.50;62.00
72440;DHT22;60446;50.752;4.352;2023-04-24T10:49:31;11.20;62.60
72440;DHT22;60446;50.752;4.352;2023-04-24T10:52:03;11.00;61.50
72440;DHT22;60446;50.752;4.352;2023-04-24T10:57:28;10.90;64.90
72440;DHT22;60446;50.752;4.352;2023-04-24T11:00:14;11.00;65.10
72440;DHT22;60446;50.752;4.352;2023-04-24T11:02:42;11.20;66.20
72440;DHT22;60446;50.752;4.352;2023-04-24T11:05:16;11.60;64.30
72440;DHT22;60446;50.752;4.352;2023-04-24T11:08:10;11.90;62.60
72440;DHT22;60446;50.752;4.352;2023-04-24T11:11:01;12.20;64.70
72440;DHT22;60446;50.752;4.352;2023-04-24T11:27:18;11.50;62.00
72440;DHT22;60446;50.752;4.352;2023-04-24T11:29:59;11.40;61.80
72440;DHT22;60446;50.752;4.352;2023-04-24T11:32:40;11.20;61.20
72440;DHT22;60446;50.752;4.352;2023-04-24T11:35:18;11.10;63.30
72440;DHT22;60446;50.752;4.352;2023-04-24T11:37:52;11.40;63.70
72440;DHT22;60446;50.752;4.352;2023-04-24T11:40:23;11.60;62.50
72440;DHT22;60446;50.752;4.352;2023-04-24T11:42:53;11.90;61.80
72440;DHT22;60446;50.752;4.352;2023-04-24T11:45:31;12.10;60.30
72440;DHT22;60446;50.752;4.352;2023-04-24T11:48:03;12.20;59.60
72440;DHT22;60446;50.752;4.352;2023-04-24T11:50:37;12.20;60.90
72440;DHT22;60446;50.752;4.352;2023-04-24T11:53:04;12.30;58.90
72440;DHT22;60446;50.752;4.352;2023-04-24T11:55:32;12.40;60.30
72440;DHT22;60446;50.752;4.352;2023-04-24T11:58:01;12.60;59.10
72440;DHT22;60446;50.752;4.352;2023-04-24T12:00:31;12.40;59.40
72440;DHT22;60446;50.752;4.352;2023-04-24T12:03:09;12.40;58.00
72440;DHT22;60446;50.752;4.352;2023-04-24T12:05:44;12.70;58.50
72440;DHT22;60446;50.752;4.352;2023-04-24T12:08:27;12.80;58.50
72440;DHT22;60446;50.752;4.352;2023-04-24T12:10:55;12.90;57.90
72440;DHT22;60446;50.752;4.352;2023-04-24T12:13:27;12.90;58.40
72440;DHT22;60446;50.752;4.352;2023-04-24T12:16:01;13.00;60.00
72440;DHT22;60446;50.752;4.352;2023-04-24T12:18:30;13.20;60.40
72440;DHT22;60446;50.752;4.352;2023-04-24T12:21:20;13.10;58.60
72440;DHT22;60446;50.752;4.352;2023-04-24T12:23:49;12.90;57.10
72440;DHT22;60446;50.752;4.352;2023-04-24T12:26:27;12.60;58.80
72440;DHT22;60446;50.752;4.352;2023-04-24T12:29:02;12.70;59.50
72440;DHT22;60446;50.752;4.352;2023-04-24T12:31:38;13.00;59.30
72440;DHT22;60446;50.752;4.352;2023-04-24T12:34:20;13.30;56.80
72440;DHT22;60446;50.752;4.352;2023-04-24T12:36:51;12.80;56.30
72440;DHT22;60446;50.752;4.352;2023-04-24T12:39:22;12.60;56.60
72440;DHT22;60446;50.752;4.352;2023-04-24T12:41:56;12.60;60.20
72440;DHT22;60446;50.752;4.352;2023-04-24T12:44:32;12.80;58.70
72440;DHT22;60446;50.752;4.352;2023-04-24T12:47:04;12.90;56.20
72440;DHT22;60446;50.752;4.352;2023-04-24T12:49:37;13.00;56.90
72440;DHT22;60446;50.752;4.352;2023-04-24T12:52:06;13.10;56.50
72440;DHT22;60446;50.752;4.352;2023-04-24T12:54:35;12.90;56.10
72440;DHT22;60446;50.752;4.352;2023-04-24T12:57:10;13.10;58.60
72440;DHT22;60446;50.752;4.352;2023-04-24T12:59:40;13.30;58.60
72440;DHT22;60446;50.752;4.352;2023-04-24T13:02:08;13.00;55.60
72440;DHT22;60446;50.752;4.352;2023-04-24T13:04:40;12.80;58.00
72440;DHT22;60446;50.752;4.352;2023-04-24T13:07:10;12.70;57.50
72440;DHT22;60446;50.752;4.352;2023-04-24T13:09:44;12.60;59.10
72440;DHT22;60446;50.752;4.352;2023-04-24T13:12:14;12.50;57.40
72440;DHT22;60446;50.752;4.352;2023-04-24T13:14:46;12.60;58.90
72440;DHT22;60446;50.752;4.352;2023-04-24T13:17:23;12.60;59.00
72440;DHT22;60446;50.752;4.352;2023-04-24T13:19:53;12.70;56.50
72440;DHT22;60446;50.752;4.352;2023-04-24T13:22:24;12.40;56.60
72440;DHT22;60446;50.752;4.352;2023-04-24T13:24:54;12.40;57.00
72440;DHT22;60446;50.752;4.352;2023-04-24T13:27:23;12.30;56.30
72440;DHT22;60446;50.752;4.352;2023-04-24T13:29:53;12.30;58.10
72440;DHT22;60446;50.752;4.352;2023-04-24T13:32:23;12.40;55.70
72440;DHT22;60446;50.752;4.352;2023-04-24T13:34:55;12.50;58.30
72440;DHT22;60446;50.752;4.352;2023-04-24T13:37:27;12.70;60.10
72440;DHT22;60446;50.752;4.352;2023-04-24T13:39:54;12.80;58.50
72440;DHT22;60446;50.752;4.352;2023-04-24T13:42:21;12.80;57.30
72440;DHT22;60446;50.752;4.352;2023-04-24T13:44:50;12.70;56.50
72440;DHT22;60446;50.752;4.352;2023-04-24T13:47:25;12.80;56.80
72440;DHT22;60446;50.752;4.352;2023-04-24T13:49:55;12.80;57.70
72440;DHT22;60446;50.752;4.352;2023-04-24T13:52:23;12.90;56.90
72440;DHT22;60446;50.752;4.352;2023-04-24T13:54:50;13.00;57.50
72440;DHT22;60446;50.752;4.352;2023-04-24T13:57:25;12.80;56.10
72440;DHT22;60446;50.752;4.352;2023-04-24T13:59:53;12.50;57.50
72440;DHT22;60446;50.752;4.352;2023-04-24T14:02:22;12.40;56.00
72440;DHT22;60446;50.752;4.352;2023-04-24T14:04:49;12.30;56.60
72440;DHT22;60446;50.752;4.352;2023-04-24T14:07:17;12.20;55.70
72440;DHT22;60446;50.752;4.352;2023-04-24T14:09:47;11.90;56.30
72440;DHT22;60446;50.752;4.352;2023-04-24T14:12:16;12.00;56.30
72440;DHT22;60446;50.752;4.352;2023-04-24T14:14:47;12.10;57.10
72440;DHT22;60446;50.752;4.352;2023-04-24T14:17:20;12.20;56.80
72440;DHT22;60446;50.752;4.352;2023-04-24T14:19:52;12.30;56.70
72440;DHT22;60446;50.752;4.352;2023-04-24T14:22:23;12.30;55.90
72440;DHT22;60446;50.752;4.352;2023-04-24T14:24:54;12.20;55.30
72440;DHT22;60446;50.752;4.352;2023-04-24T14:27:25;12.10;56.60
72440;DHT22;60446;50.752;4.352;2023-04-24T14:29:57;12.00;55.50
72440;DHT22;60446;50.752;4.352;2023-04-24T14:32:35;11.80;55.60
72440;DHT22;60446;50.752;4.352;2023-04-24T14:35:03;11.70;56.10
72440;DHT22;60446;50.752;4.352;2023-04-24T14:37:30;11.60;58.00
72440;DHT22;60446;50.752;4.352;2023-04-24T14:39:59;11.60;56.80
72440;DHT22;60446;50.752;4.352;2023-04-24T14:42:54;11.60;55.80
72440;DHT22;60446;50.752;4.352;2023-04-24T14:45:24;11.50;56.40
72440;DHT22;60446;50.752;4.352;2023-04-24T14:48:01;11.50;57.30
72440;DHT22;60446;50.752;4.352;2023-04-24T14:50:29;11.60;59.10
72440;DHT22;60446;50.752;4.352;2023-04-24T14:52:57;11.70;57.10
72440;DHT22;60446;50.752;4.352;2023-04-24T14:55:25;11.80;56.20
72440;DHT22;60446;50.752;4.352;2023-04-24T14:57:57;11.80;56.30
72440;DHT22;60446;50.752;4.352;2023-04-24T15:00:27;11.80;56.30
72440;DHT22;60446;50.752;4.352;2023-04-24T15:02:56;11.80;55.80
72440;DHT22;60446;50.752;4.352;2023-04-24T15:05:30;11.60;56.10
72440;DHT22;60446;50.752;4.352;2023-04-24T15:07:58;11.30;55.80
72440;DHT22;60446;50.752;4.352;2023-04-24T15:10:29;11.30;56.10
72440;DHT22;60446;50.752;4.352;2023-04-24T15:12:58;11.30;56.30
72440;DHT22;60446;50.752;4.352;2023-04-24T15:15:31;11.40;57.20
72440;DHT22;60446;50.752;4.352;2023-04-24T15:17:59;11.50;56.40
72440;DHT22;60446;50.752;4.352;2023-04-24T15:20:26;11.60;55.40
72440;DHT22;60446;50.752;4.352;2023-04-24T15:22:56;11.60;55.40
72440;DHT22;60446;50.752;4.352;2023-04-24T15:25:26;11.50;55.30
72440;DHT22;60446;50.752;4.352;2023-04-24T15:27:53;11.40;55.70
72440;DHT22;60446;50.752;4.352;2023-04-24T15:30:21;11.40;55.40
72440;DHT22;60446;50.752;4.352;2023-04-24T15:32:52;11.50;57.80
72440;DHT22;60446;50.752;4.352;2023-04-24T15:35:29;11.50;55.00
72440;DHT22;60446;50.752;4.352;2023-04-24T15:38:15;11.30;56.00
72440;DHT22;60446;50.752;4.352;2023-04-24T15:41:02;11.40;56.00
72440;DHT22;60446;50.752;4.352;2023-04-24T15:43:30;11.40;55.30
72440;DHT22;60446;50.752;4.352;2023-04-24T15:46:04;11.50;56.60
72440;DHT22;60446;50.752;4.352;2023-04-24T15:48:32;11.60;55.80
72440;DHT22;60446;50.752;4.352;2023-04-24T15:51:00;11.60;54.90
72440;DHT22;60446;50.752;4.352;2023-04-24T15:53:27;11.50;54.50
72440;DHT22;60446;50.752;4.352;2023-04-24T15:55:57;11.40;54.90
72440;DHT22;60446;50.752;4.352;2023-04-24T15:58:24;11.50;56.00
72440;DHT22;60446;50.752;4.352;2023-04-24T16:00:51;11.60;55.80
72440;DHT22;60446;50.752;4.352;2023-04-24T16:03:20;11.80;54.90
72440;DHT22;60446;50.752;4.352;2023-04-24T16:05:48;11.80;54.40
72440;DHT22;60446;50.752;4.352;2023-04-24T16:08:41;11.70;55.00
72440;DHT22;60446;50.752;4.352;2023-04-24T16:11:19;11.70;55.10
72440;DHT22;60446;50.752;4.352;2023-04-24T16:13:46;11.80;55.70
72440;DHT22;60446;50.752;4.352;2023-04-24T16:16:16;11.60;54.80
72440;DHT22;60446;50.752;4.352;2023-04-24T16:18:51;11.60;55.50